Time;durP1;ratioP1;P1;durP2;ratioP2;P2;SDS_P1;SDS_P2;PMS_P1;PMS_P2;Temp;Humidity;BMP_temperature;BMP_pressure;BME280_temperature;BME280_humidity;BME280_pressure;Samples;Min_cycle;Max_cycle;Signal;HPM_P1;HPM_P2
2022/03/13 00:00:47;;;;;;;10.05;4.85;;;;;;;-7.52;56.93;95837.19;5072430;28;20103;-69
2022/03/13 00:03:13;;;;;;;9.80;5.35;;;;;;;-7.59;57.46;95826.25;5073969;28;20028;-68
2022/03/13 00:05:41;;;;;;;8.10;4.97;;;;;;;-7.57;57.07;95836.34;5055810;28;20098;-69
2022/03/13 00:08:22;;;;;;;10.20;5.43;;;;;;;-7.60;57.41;95833.78;5072534;28;20449;-68
2022/03/13 00:10:50;;;;;;;8.13;4.60;;;;;;;-7.71;57.57;95838.81;5072328;28;20487;-68
2022/03/13 00:13:19;;;;;;;10.38;5.57;;;;;;;-7.74;57.68;95832.09;5072177;28;20036;-68
2022/03/13 00:15:45;;;;;;;9.82;5.38;;;;;;;-7.68;57.71;95842.19;5072128;28;20032;-68
2022/03/13 00:18:11;;;;;;;10.63;4.93;;;;;;;-7.74;58.07;95826.19;5072183;28;20411;-68
2022/03/13 00:20:38;;;;;;;9.32;5.50;;;;;;;-7.75;57.70;95842.16;5072153;28;20032;-68
2022/03/13 00:23:05;;;;;;;7.40;5.00;;;;;;;-7.82;58.15;95836.25;5072077;28;20032;-68
2022/03/13 00:25:30;;;;;;;11.05;5.70;;;;;;;-7.82;58.06;95843.81;5055229;28;20418;-68
2022/03/13 00:27:55;;;;;;;7.97;5.03;;;;;;;-7.78;57.90;95837.94;5055236;28;20032;-68
2022/03/13 00:30:21;;;;;;;9.95;4.72;;;;;;;-7.83;58.14;95837.06;5055195;28;20033;-68
2022/03/13 00:32:46;;;;;;;9.35;4.93;;;;;;;-7.80;58.40;95842.16;5073080;28;20035;-69
2022/03/13 00:35:12;;;;;;;9.68;5.55;;;;;;;-7.76;58.18;95828.69;5055114;28;20040;-68
2022/03/13 00:37:38;;;;;;;11.35;6.18;;;;;;;-7.79;58.41;95826.16;5071675;28;20020;-68
2022/03/13 00:40:04;;;;;;;10.55;5.70;;;;;;;-7.82;58.67;95833.72;5071775;28;20118;-68
2022/03/13 00:42:29;;;;;;;10.05;5.65;;;;;;;-7.89;58.86;95832.00;5071555;28;20107;-68
2022/03/13 00:44:55;;;;;;;15.27;6.43;;;;;;;-7.97;59.44;95833.63;5054935;28;20028;-68
2022/03/13 00:47:21;;;;;;;10.07;5.78;;;;;;;-7.89;59.07;95832.00;5070302;28;20431;-68
2022/03/13 00:49:47;;;;;;;10.30;5.50;;;;;;;-7.88;58.77;95833.72;5073261;28;20067;-68
2022/03/13 00:52:12;;;;;;;10.35;5.43;;;;;;;-7.90;58.72;95831.16;5072644;28;20036;-68
2022/03/13 00:54:38;;;;;;;10.32;5.07;;;;;;;-7.95;58.68;95817.69;5071662;28;20437;-68
2022/03/13 00:57:03;;;;;;;11.35;5.82;;;;;;;-7.99;59.15;95818.50;5089807;28;20032;-68
2022/03/13 00:59:29;;;;;;;10.60;5.72;;;;;;;-8.02;59.29;95820.16;5074904;28;20040;-68
2022/03/13 01:01:54;;;;;;;9.40;4.65;;;;;;;-8.00;59.46;95813.44;5091545;28;20032;-68
2022/03/13 01:04:19;;;;;;;9.40;5.15;;;;;;;-7.96;59.12;95812.66;5091660;28;20069;-68
2022/03/13 01:06:46;;;;;;;8.35;5.13;;;;;;;-7.97;59.31;95815.97;5074613;28;20028;-68
2022/03/13 01:09:11;;;;;;;11.55;5.57;;;;;;;-7.93;59.08;95815.19;5074763;28;20032;-68
2022/03/13 01:11:37;;;;;;;10.23;5.53;;;;;;;-7.93;59.06;95810.13;5074448;28;20039;-68
2022/03/13 01:14:02;;;;;;;12.32;5.75;;;;;;;-8.02;58.88;95817.63;5074340;28;20023;-68
2022/03/13 01:16:33;;;;;;;11.10;5.63;;;;;;;-8.00;59.47;95805.88;5092338;28;20032;-69
2022/03/13 01:18:59;;;;;;;10.82;5.18;;;;;;;-7.99;58.80;95789.94;5074974;28;20119;-68
2022/03/13 01:21:25;;;;;;;8.50;5.25;;;;;;;-7.99;58.84;95794.97;5074247;28;20421;-68
2022/03/13 01:24:00;;;;;;;9.20;5.57;;;;;;;-8.18;59.32;95794.88;5074478;28;20076;-68
2022/03/13 01:26:25;;;;;;;8.02;4.47;;;;;;;-8.15;58.98;95791.53;5090945;28;20036;-68
2022/03/13 01:28:58;;;;;;;8.27;5.35;;;;;;;-8.25;59.09;95770.44;5092147;28;20042;-68
2022/03/13 01:31:25;;;;;;;10.80;5.03;;;;;;;-8.22;59.17;95780.56;5074062;28;20036;-68
2022/03/13 01:33:50;;;;;;;7.00;4.70;;;;;;;-8.22;58.96;95770.47;5091065;28;20039;-68
2022/03/13 01:36:16;;;;;;;6.82;4.20;;;;;;;-8.16;59.21;95783.13;5090747;28;20058;-68
2022/03/13 01:38:41;;;;;;;9.02;4.90;;;;;;;-8.20;59.08;95775.53;5073677;28;20060;-68
2022/03/13 01:41:07;;;;;;;9.70;5.25;;;;;;;-8.13;58.88;95770.53;5090597;28;20035;-68
2022/03/13 01:43:33;;;;;;;12.65;5.22;;;;;;;-8.07;59.14;95776.44;5090122;28;20035;-68
2022/03/13 01:45:59;;;;;;;7.47;4.63;;;;;;;-8.13;59.11;95767.16;5090278;28;20113;-68
2022/03/13 01:48:28;;;;;;;12.15;4.65;;;;;;;-8.13;59.53;95768.00;5073945;28;20032;-68
2022/03/13 01:50:53;;;;;;;7.13;4.47;;;;;;;-8.17;58.84;95770.50;5073721;28;20417;-68
2022/03/13 01:53:21;;;;;;;8.32;4.70;;;;;;;-8.25;59.42;95772.97;5090598;28;20035;-68
2022/03/13 01:55:54;;;;;;;7.90;4.55;;;;;;;-8.30;59.01;95769.63;5070350;28;20413;-68
2022/03/13 01:58:19;;;;;;;9.73;4.63;;;;;;;-8.27;59.12;95784.75;5065627;28;20098;-68
2022/03/13 02:00:46;;;;;;;7.47;4.40;;;;;;;-8.43;59.63;95783.84;5070037;28;20056;-68
2022/03/13 02:03:12;;;;;;;6.70;4.00;;;;;;;-8.43;59.50;95786.38;5068677;28;20446;-69
2022/03/13 02:05:38;;;;;;;8.88;4.85;;;;;;;-8.45;59.39;95794.75;5053409;28;20040;-68
2022/03/13 02:08:17;;;;;;;9.50;5.45;;;;;;;-8.46;59.85;95801.47;5053281;28;20089;-68
2022/03/13 02:10:42;;;;;;;16.83;7.60;;;;;;;-8.41;60.40;95801.47;5070308;28;20068;-68
2022/03/13 02:13:08;;;;;;;13.18;8.98;;;;;;;-8.26;59.94;95805.75;5069943;28;20380;-68
2022/03/13 02:15:34;;;;;;;12.20;6.82;;;;;;;-8.25;59.76;95795.66;5070972;28;20468;-68
2022/03/13 02:18:00;;;;;;;8.55;4.55;;;;;;;-8.20;59.34;95791.50;5071244;28;20028;-68
2022/03/13 02:20:26;;;;;;;7.95;5.32;;;;;;;-8.12;58.98;95801.63;5053138;28;20037;-68
2022/03/13 02:22:53;;;;;;;7.35;3.85;;;;;;;-8.17;58.38;95791.50;5069856;28;20104;-68
2022/03/13 02:25:22;;;;;;;8.45;5.05;;;;;;;-8.17;58.58;95791.50;5053300;28;20037;-68
2022/03/13 02:27:47;;;;;;;9.45;5.00;;;;;;;-8.24;58.81;95794.84;5070904;28;20028;-68
2022/03/13 02:30:13;;;;;;;8.70;5.63;;;;;;;-8.41;59.11;95791.41;5069833;28;20388;-68
2022/03/13 02:32:38;;;;;;;7.53;4.55;;;;;;;-8.44;59.18;95784.69;5069721;28;20032;-68
2022/03/13 02:35:04;;;;;;;12.38;5.07;;;;;;;-8.52;59.26;95783.81;5069737;28;20036;-68
2022/03/13 02:37:38;;;;;;;12.27;5.50;;;;;;;-8.52;59.44;95791.38;5069564;28;20146;-68
2022/03/13 02:40:04;;;;;;;8.40;5.60;;;;;;;-8.56;59.64;95795.50;5069641;28;20048;-68
2022/03/13 02:42:29;;;;;;;9.00;5.32;;;;;;;-8.52;59.94;95801.44;5069515;28;20037;-68
2022/03/13 02:44:55;;;;;;;8.63;5.18;;;;;;;-8.55;59.98;95798.91;5069644;28;20025;-68
2022/03/13 02:47:20;;;;;;;9.63;5.78;;;;;;;-8.50;59.70;95796.41;5052740;28;20438;-68
2022/03/13 02:49:45;;;;;;;10.57;5.32;;;;;;;-8.50;59.92;95796.41;5069841;28;20051;-68
2022/03/13 02:52:11;;;;;;;8.82;5.57;;;;;;;-8.59;59.93;95785.41;5070694;28;20461;-68
2022/03/13 02:54:36;;;;;;;8.75;4.55;;;;;;;-8.70;60.09;95784.50;5069728;28;20040;-68
2022/03/13 02:57:02;;;;;;;9.38;5.70;;;;;;;-8.60;60.15;95796.34;5088915;28;20032;-68
2022/03/13 02:59:28;;;;;;;7.65;4.80;;;;;;;-8.66;60.37;95786.22;5056215;28;20032;-68
2022/03/13 03:01:53;;;;;;;8.45;5.10;;;;;;;-8.64;60.34;95788.75;5072830;28;20071;-68
2022/03/13 03:04:22;;;;;;;6.88;4.32;;;;;;;-8.65;60.41;95790.41;5072927;28;20133;-68
2022/03/13 03:06:54;;;;;;;8.25;4.72;;;;;;;-8.74;60.41;95775.25;5072807;28;20032;-68
2022/03/13 03:09:19;;;;;;;10.57;4.75;;;;;;;-8.62;60.60;95789.59;5073094;28;20490;-68
2022/03/13 03:11:45;;;;;;;10.80;4.88;;;;;;;-8.66;60.63;95780.31;5093093;28;20047;-68
2022/03/13 03:14:11;;;;;;;7.72;4.53;;;;;;;-8.63;60.60;95775.31;5093763;28;20494;-68
2022/03/13 03:16:37;;;;;;;7.57;4.43;;;;;;;-8.63;60.97;95780.38;5077055;28;20036;-68
2022/03/13 03:19:02;;;;;;;9.63;4.80;;;;;;;-8.60;60.47;95775.34;5093666;28;20513;-68
2022/03/13 03:21:28;;;;;;;8.85;4.70;;;;;;;-8.66;60.52;95760.16;5094690;28;20498;-68
2022/03/13 03:23:53;;;;;;;8.80;4.53;;;;;;;-8.60;60.75;95776.19;5076599;28;20039;-68
2022/03/13 03:26:19;;;;;;;9.35;4.80;;;;;;;-8.62;60.97;95777.84;5076479;28;20031;-69
2022/03/13 03:28:44;;;;;;;6.82;4.43;;;;;;;-8.54;60.55;95772.84;5076483;28;20490;-68
2022/03/13 03:31:10;;;;;;;10.10;5.13;;;;;;;-8.59;60.65;95767.78;5093250;28;20028;-68
2022/03/13 03:33:35;;;;;;;7.50;4.50;;;;;;;-8.57;60.26;95766.13;5093409;28;20092;-68
2022/03/13 03:36:01;;;;;;;7.25;4.57;;;;;;;-8.58;59.99;95769.50;5093099;28;20085;-68
2022/03/13 03:38:26;;;;;;;10.70;5.22;;;;;;;-8.56;60.07;95764.44;5093089;28;20024;-68
2022/03/13 03:40:52;;;;;;;8.93;5.05;;;;;;;-8.58;60.07;95764.44;5093210;28;20478;-68
2022/03/13 03:43:17;;;;;;;9.00;4.65;;;;;;;-8.52;60.00;95766.16;5093180;28;20035;-68
2022/03/13 03:45:43;;;;;;;9.73;4.38;;;;;;;-8.64;59.91;95743.38;5094218;28;20039;-68
2022/03/13 03:48:08;;;;;;;12.55;5.72;;;;;;;-8.54;60.69;95760.25;5059352;28;20057;-68
2022/03/13 03:50:33;;;;;;;9.80;5.40;;;;;;;-8.50;60.55;95776.22;5076049;28;20032;-68
2022/03/13 03:52:59;;;;;;;10.32;5.10;;;;;;;-8.44;60.58;95762.00;5075934;28;20035;-69
2022/03/13 03:55:25;;;;;;;12.30;6.47;;;;;;;-8.37;60.65;95757.81;5087968;28;20032;-69
2022/03/13 03:57:50;;;;;;;14.38;7.30;;;;;;;-8.19;61.11;95765.47;5072337;28;20502;-69
2022/03/13 04:00:16;;;;;;;12.18;6.60;;;;;;;-8.11;60.78;95760.44;5073671;28;20035;-70
2022/03/13 04:02:42;;;;;;;12.55;6.53;;;;;;;-8.02;60.65;95754.59;5072430;28;20040;-68
2022/03/13 04:05:11;;;;;;;9.25;5.68;;;;;;;-7.90;60.35;95764.75;5072309;28;20025;-69
2022/03/13 04:07:36;;;;;;;8.73;5.43;;;;;;;-7.88;60.32;95755.50;5076187;28;20102;-69
2022/03/13 04:10:03;;;;;;;11.35;6.25;;;;;;;-7.83;60.88;95746.25;5066866;28;20112;-69
2022/03/13 04:12:30;;;;;;;10.10;6.60;;;;;;;-7.78;60.75;95754.66;5055640;28;20017;-69
2022/03/13 04:14:55;;;;;;;10.75;5.90;;;;;;;-7.77;61.08;95752.97;5067397;28;20468;-69
2022/03/13 04:17:21;;;;;;;9.23;5.80;;;;;;;-7.87;61.17;95729.44;5092565;28;20036;-68
2022/03/13 04:19:47;;;;;;;10.02;5.30;;;;;;;-7.61;60.11;95756.41;5075515;28;20433;-69
2022/03/13 04:22:14;;;;;;;11.65;5.70;;;;;;;-7.62;59.39;95749.69;5092011;28;20024;-68
2022/03/13 04:24:40;;;;;;;9.07;5.38;;;;;;;-7.65;58.60;95742.94;5092466;28;20059;-68
2022/03/13 04:27:05;;;;;;;9.32;5.15;;;;;;;-7.68;58.12;95756.41;5080293;28;20487;-68
2022/03/13 04:29:31;;;;;;;9.00;4.88;;;;;;;-7.71;57.57;95746.28;5073664;28;20391;-69
2022/03/13 04:31:57;;;;;;;9.05;4.53;;;;;;;-7.77;57.74;95743.75;5071922;28;20039;-69
2022/03/13 04:34:22;;;;;;;8.55;4.53;;;;;;;-7.84;57.48;95749.63;5072054;28;20395;-68
2022/03/13 04:36:48;;;;;;;8.25;4.57;;;;;;;-7.83;57.74;95743.72;5071742;28;20040;-69
2022/03/13 04:39:13;;;;;;;8.00;4.80;;;;;;;-7.78;57.78;95738.69;5054947;28;20207;-69
2022/03/13 04:41:39;;;;;;;8.30;4.82;;;;;;;-7.72;57.81;95749.63;5071716;28;20039;-69
2022/03/13 04:44:06;;;;;;;8.23;4.63;;;;;;;-7.75;57.67;95748.78;5071355;28;20025;-69
2022/03/13 04:46:32;;;;;;;8.00;4.30;;;;;;;-7.73;57.48;95747.13;5088986;28;20433;-68
2022/03/13 04:48:57;;;;;;;8.65;4.22;;;;;;;-7.92;57.94;95742.00;5067171;28;20513;-69
2022/03/13 04:51:23;;;;;;;6.32;4.30;;;;;;;-7.92;58.13;95749.59;5072257;28;20033;-68
2022/03/13 04:53:49;;;;;;;24.00;12.70;;;;;;;-8.05;59.83;95744.47;5054346;28;20062;-68
2022/03/13 04:56:14;;;;;;;32.22;16.02;;;;;;;-8.07;61.17;95756.28;5054612;28;20036;-70
2022/03/13 04:58:39;;;;;;;21.92;10.27;;;;;;;-8.11;60.34;95748.69;5075541;28;20417;-69
2022/03/13 05:01:05;;;;;;;74.32;29.25;;;;;;;-7.95;61.96;95756.31;5073210;28;20032;-70
2022/03/13 05:03:33;;;;;;;51.90;23.45;;;;;;;-7.84;63.00;95763.91;5073354;28;20063;-70
2022/03/13 05:06:05;;;;;;;38.20;19.02;;;;;;;-8.00;64.39;95738.63;5090235;28;20040;-69
2022/03/13 05:08:31;;;;;;;33.53;15.50;;;;;;;-7.85;64.18;95763.06;5089735;28;20032;-70
2022/03/13 05:10:57;;;;;;;38.80;19.30;;;;;;;-7.76;64.17;95757.22;5072384;28;20532;-70
2022/03/13 05:13:24;;;;;;;52.50;24.90;;;;;;;-7.61;63.56;95766.50;5089258;28;20036;-70
2022/03/13 05:15:51;;;;;;;45.58;24.45;;;;;;;-7.55;63.08;95776.59;5086954;28;20042;-70
2022/03/13 05:18:16;;;;;;;42.17;21.30;;;;;;;-7.45;62.52;95768.22;5056736;28;20033;-70
2022/03/13 05:20:41;;;;;;;37.92;18.90;;;;;;;-7.39;62.41;95768.22;5072699;28;20105;-69
2022/03/13 05:23:08;;;;;;;26.15;13.30;;;;;;;-7.31;61.72;95765.72;5090352;28;20458;-69
2022/03/13 05:25:34;;;;;;;9.77;5.72;;;;;;;-7.47;59.25;95758.09;5070859;28;20509;-69
2022/03/13 05:28:00;;;;;;;8.68;4.93;;;;;;;-7.35;57.76;95771.59;5072774;28;20032;-70
2022/03/13 05:30:25;;;;;;;7.57;4.63;;;;;;;-7.47;58.31;95764.84;5090462;28;20532;-70
2022/03/13 05:32:51;;;;;;;9.02;4.90;;;;;;;-7.44;58.21;95773.28;5086816;28;20025;-70
2022/03/13 05:35:16;;;;;;;9.18;4.72;;;;;;;-7.36;58.53;95768.22;5071361;28;20044;-70
2022/03/13 05:37:43;;;;;;;25.98;10.75;;;;;;;-7.25;58.67;95774.13;5072654;28;20037;-72
2022/03/13 05:40:12;;;;;;;19.27;8.85;;;;;;;-7.21;58.59;95768.25;5086271;28;20100;-70
2022/03/13 05:42:37;;;;;;;9.32;5.30;;;;;;;-7.13;57.77;95764.88;5090854;28;20066;-69
2022/03/13 05:45:04;;;;;;;10.85;5.88;;;;;;;-6.98;57.69;95780.06;5078854;28;20494;-70
2022/03/13 05:47:29;;;;;;;25.63;11.15;;;;;;;-6.95;58.49;95780.06;5060275;28;20028;-70
2022/03/13 05:49:55;;;;;;;40.70;18.70;;;;;;;-6.92;59.43;95772.50;5046965;28;20547;-69
2022/03/13 05:52:20;;;;;;;51.38;23.25;;;;;;;-6.84;59.96;95782.59;5084733;28;20024;-69
2022/03/13 05:54:46;;;;;;;62.03;23.70;;;;;;;-6.82;60.03;95769.13;5064353;28;20032;-68
2022/03/13 05:57:11;;;;;;;45.35;18.45;;;;;;;-6.62;60.36;95770.78;5079662;28;20456;-68
2022/03/13 05:59:37;;;;;;;33.38;15.65;;;;;;;-6.47;60.17;95780.88;5075758;28;20048;-68
2022/03/13 06:02:07;;;;;;;25.73;14.20;;;;;;;-6.33;59.66;95785.91;5073750;28;20032;-68
2022/03/13 06:04:35;;;;;;;45.28;21.08;;;;;;;-6.21;59.03;95778.31;5072302;28;20036;-68
2022/03/13 06:07:01;;;;;;;37.40;17.88;;;;;;;-6.08;58.17;95791.75;5078886;28;20028;-68
2022/03/13 06:09:29;;;;;;;58.20;25.25;;;;;;;-5.95;58.06;95783.28;5075018;28;20569;-68
2022/03/13 06:11:55;;;;;;;55.10;28.23;;;;;;;-5.90;58.34;95786.63;5079797;28;20085;-68
2022/03/13 06:14:20;;;;;;;51.47;22.23;;;;;;;-5.84;57.83;95789.13;5063349;28;20052;-68
2022/03/13 06:16:46;;;;;;;46.22;20.90;;;;;;;-5.82;57.78;95793.31;5075297;28;20028;-69
2022/03/13 06:19:11;;;;;;;48.50;21.00;;;;;;;-5.73;58.04;95785.72;5064966;28;20031;-68
2022/03/13 06:21:41;;;;;;;48.47;21.20;;;;;;;-5.37;57.29;95791.44;5080863;28;20043;-68
2022/03/13 06:24:06;;;;;;;47.85;22.80;;;;;;;-5.21;57.10;95788.81;5081770;28;20062;-68
2022/03/13 06:26:32;;;;;;;60.72;32.72;;;;;;;-5.03;56.17;95797.97;5065162;28;20093;-68
2022/03/13 06:28:58;;;;;;;44.45;23.02;;;;;;;-4.77;55.63;95794.41;5078894;28;20031;-68
2022/03/13 06:31:24;;;;;;;49.58;21.33;;;;;;;-4.61;54.49;95785.84;5086520;28;20040;-68
2022/03/13 06:33:49;;;;;;;52.85;25.48;;;;;;;-4.22;54.05;95783.78;5084319;28;20027;-68
2022/03/13 06:36:15;;;;;;;56.10;25.70;;;;;;;-3.56;53.31;95780.53;5084836;28;20036;-68
2022/03/13 06:38:40;;;;;;;53.13;29.13;;;;;;;-2.92;50.22;95778.78;5087778;28;20248;-68
2022/03/13 06:41:06;;;;;;;51.03;28.33;;;;;;;-2.22;49.27;95783.59;5082020;28;20048;-68
2022/03/13 06:43:33;;;;;;;37.03;20.02;;;;;;;-1.63;47.31;95786.72;5070331;28;20526;-66
2022/03/13 06:45:58;;;;;;;33.55;17.38;;;;;;;-1.01;45.24;95787.13;5081948;28;20515;-67
2022/03/13 06:48:26;;;;;;;31.52;17.42;;;;;;;-0.72;45.49;95777.97;5077366;28;20050;-67
2022/03/13 06:50:51;;;;;;;26.33;15.50;;;;;;;-0.25;43.70;95789.59;5070204;28;20121;-67
2022/03/13 06:53:17;;;;;;;32.72;19.77;;;;;;;0.16;43.84;95787.66;5082912;28;20037;-67
2022/03/13 06:55:42;;;;;;;36.75;19.60;;;;;;;0.54;42.19;95779.84;5085638;28;20032;-67
2022/03/13 06:58:08;;;;;;;38.40;19.60;;;;;;;0.97;41.45;95776.03;5085976;28;20507;-67
2022/03/13 07:00:33;;;;;;;37.05;20.42;;;;;;;1.21;40.56;95777.00;5083064;28;20036;-67
2022/03/13 07:02:59;;;;;;;40.50;20.75;;;;;;;1.53;40.02;95770.88;5065277;28;20094;-67
2022/03/13 07:05:25;;;;;;;41.42;19.58;;;;;;;1.49;39.57;95766.75;5085939;28;20386;-67
2022/03/13 07:07:53;;;;;;;42.40;21.30;;;;;;;1.47;39.73;95764.22;5066322;28;20032;-67
2022/03/13 07:10:19;;;;;;;42.83;21.15;;;;;;;1.00;39.62;95722.19;5085842;28;20107;-67
2022/03/13 07:12:44;;;;;;;41.63;22.67;;;;;;;1.09;39.43;95760.31;5073713;28;20030;-67
2022/03/13 07:15:12;;;;;;;43.33;22.20;;;;;;;1.06;40.08;95757.84;5082707;28;20028;-67
2022/03/13 07:17:38;;;;;;;47.40;24.85;;;;;;;1.09;40.07;95762.88;5088000;28;20039;-67
2022/03/13 07:20:05;;;;;;;50.83;28.05;;;;;;;0.92;41.01;95762.53;5067330;28;20055;-68
2022/03/13 07:22:31;;;;;;;51.08;28.08;;;;;;;0.89;40.89;95760.91;5049694;28;20059;-67
2022/03/13 07:24:56;;;;;;;45.90;24.95;;;;;;;0.68;41.14;95752.16;5086606;28;20067;-67
2022/03/13 07:27:22;;;;;;;46.47;24.58;;;;;;;0.92;41.40;95765.09;5081110;28;20043;-67
2022/03/13 07:29:49;;;;;;;45.30;23.70;;;;;;;0.95;40.25;95758.19;5083419;28;20140;-67
2022/03/13 07:32:15;;;;;;;55.13;29.52;;;;;;;0.80;40.50;95769.69;5061403;28;20037;-67
2022/03/13 07:34:40;;;;;;;42.55;23.50;;;;;;;0.75;41.27;95766.41;5065808;28;20028;-67
2022/03/13 07:37:06;;;;;;;46.70;25.25;;;;;;;0.75;41.64;95760.47;5084681;28;20094;-67
2022/03/13 07:39:31;;;;;;;39.33;23.17;;;;;;;0.79;42.76;95770.56;5067552;28;20044;-67
2022/03/13 07:41:57;;;;;;;44.70;22.15;;;;;;;0.97;42.38;95765.78;5065022;28;20640;-67
2022/03/13 07:44:22;;;;;;;30.58;16.70;;;;;;;0.67;42.58;95781.19;5071005;28;20028;-68
2022/03/13 07:46:48;;;;;;;39.38;23.35;;;;;;;0.72;42.84;95773.34;5084215;28;20427;-67
2022/03/13 07:49:13;;;;;;;35.85;20.33;;;;;;;0.65;43.61;95765.03;5085729;28;20046;-67
2022/03/13 07:51:39;;;;;;;37.00;22.58;;;;;;;0.65;43.22;95768.41;5082657;28;20029;-67
2022/03/13 07:54:04;;;;;;;22.88;15.05;;;;;;;0.22;43.38;95776.44;5077629;28;20033;-67
2022/03/13 07:56:30;;;;;;;30.52;18.95;;;;;;;0.20;44.29;95773.09;5087125;28;20048;-67
2022/03/13 07:58:56;;;;;;;28.17;16.15;;;;;;;-0.01;44.50;95767.66;5088230;28;20031;-67
2022/03/13 08:01:21;;;;;;;30.25;16.73;;;;;;;0.14;45.15;95771.56;5089326;28;20134;-67
2022/03/13 08:03:47;;;;;;;26.88;16.02;;;;;;;0.35;44.18;95762.44;5088964;28;20036;-67
2022/03/13 08:06:13;;;;;;;26.73;16.33;;;;;;;0.34;43.99;95758.22;5084492;28;20034;-67
2022/03/13 08:08:38;;;;;;;30.70;18.00;;;;;;;0.36;44.03;95751.38;5087426;28;20020;-67
2022/03/13 08:11:03;;;;;;;29.70;17.75;;;;;;;0.36;43.72;95750.50;5083947;28;20231;-67
2022/03/13 08:13:29;;;;;;;25.52;16.27;;;;;;;0.33;42.95;95745.47;5091486;28;20028;-67
2022/03/13 08:15:55;;;;;;;24.50;14.38;;;;;;;0.11;43.41;95750.34;5090869;28;20036;-67
2022/03/13 08:18:20;;;;;;;30.17;15.40;;;;;;;0.11;43.79;95740.97;5056745;28;20023;-68
2022/03/13 08:20:46;;;;;;;25.65;14.35;;;;;;;0.07;43.82;95734.25;5085927;28;20036;-67
2022/03/13 08:23:11;;;;;;;27.75;15.85;;;;;;;0.35;43.74;95734.34;5086951;28;20035;-68
2022/03/13 08:25:37;;;;;;;25.42;15.55;;;;;;;0.40;44.24;95731.66;5078081;28;20036;-67
2022/03/13 08:28:03;;;;;;;26.02;14.82;;;;;;;0.48;43.92;95713.53;5076144;28;20043;-69
2022/03/13 08:30:28;;;;;;;25.85;14.93;;;;;;;0.52;44.08;95710.84;5078692;28;20039;-68
2022/03/13 08:32:54;;;;;;;27.63;15.32;;;;;;;0.63;43.89;95720.75;5072456;28;20036;-68
2022/03/13 08:35:20;;;;;;;31.23;15.88;;;;;;;0.65;44.06;95712.16;5091231;28;20028;-69
2022/03/13 08:37:45;;;;;;;23.95;14.32;;;;;;;0.70;43.57;95726.50;5038195;28;20025;-68
2022/03/13 08:40:11;;;;;;;28.58;15.70;;;;;;;0.73;43.81;95724.72;5073239;28;20132;-68
2022/03/13 08:42:37;;;;;;;24.00;14.80;;;;;;;0.73;43.47;95726.44;5053684;28;20043;-68
2022/03/13 08:45:02;;;;;;;25.83;14.60;;;;;;;0.60;42.71;95718.28;5085286;28;20028;-70
2022/03/13 08:47:28;;;;;;;26.58;14.40;;;;;;;0.58;43.08;95736.22;5079241;28;20032;-67
2022/03/13 08:49:54;;;;;;;34.20;17.90;;;;;;;0.61;44.46;95731.03;5074582;28;20024;-67
2022/03/13 08:52:19;;;;;;;28.45;16.15;;;;;;;0.65;43.60;95734.34;5091059;28;20071;-67
2022/03/13 08:54:45;;;;;;;23.42;12.93;;;;;;;0.54;40.85;95728.69;5077605;28;20060;-68
2022/03/13 08:57:10;;;;;;;23.77;14.77;;;;;;;0.60;43.50;95728.50;5078655;28;20438;-65
2022/03/13 08:59:37;;;;;;;28.55;15.93;;;;;;;0.54;42.92;95713.38;5048373;28;20475;-67
2022/03/13 09:02:04;;;;;;;28.00;16.30;;;;;;;0.66;43.25;95711.25;5083374;28;20568;-67
2022/03/13 09:04:29;;;;;;;24.92;14.60;;;;;;;0.64;42.63;95714.75;5054820;28;20032;-67
2022/03/13 09:06:55;;;;;;;28.33;15.00;;;;;;;0.68;41.23;95712.94;5074283;28;20028;-67
2022/03/13 09:09:22;;;;;;;27.45;14.30;;;;;;;0.63;41.00;95708.78;5091642;28;20036;-67
2022/03/13 09:11:48;;;;;;;23.92;13.77;;;;;;;0.64;41.40;95702.81;5092430;28;20032;-67
2022/03/13 09:14:13;;;;;;;26.77;14.60;;;;;;;0.57;40.56;95705.59;5074780;28;20152;-67
2022/03/13 09:16:40;;;;;;;26.42;15.13;;;;;;;0.44;42.12;95700.81;5092722;28;20089;-67
2022/03/13 09:19:05;;;;;;;26.40;15.52;;;;;;;0.38;40.77;95703.56;5074597;28;20028;-67
2022/03/13 09:21:32;;;;;;;25.38;14.43;;;;;;;0.18;41.59;95699.03;5092403;28;20112;-67
2022/03/13 09:23:57;;;;;;;26.25;14.25;;;;;;;0.32;41.81;95696.06;5091320;28;20040;-67
2022/03/13 09:26:23;;;;;;;30.05;17.98;;;;;;;0.50;42.40;95691.31;5092266;28;20028;-67
2022/03/13 09:28:49;;;;;;;29.88;17.02;;;;;;;0.74;42.61;95694.84;5091267;28;20032;-67
2022/03/13 09:31:14;;;;;;;24.85;14.65;;;;;;;0.89;42.10;95690.13;5092209;28;20509;-67
2022/03/13 09:33:39;;;;;;;25.20;14.15;;;;;;;1.03;40.73;95689.69;5092181;28;20410;-67
2022/03/13 09:36:05;;;;;;;24.23;14.43;;;;;;;0.81;40.49;95675.91;5092034;28;20027;-67
2022/03/13 09:38:30;;;;;;;31.23;18.73;;;;;;;0.95;40.53;95693.34;5090712;28;20024;-67
2022/03/13 09:40:56;;;;;;;27.85;16.20;;;;;;;0.98;40.86;95688.16;5073987;28;20039;-67
2022/03/13 09:43:22;;;;;;;34.15;19.75;;;;;;;0.96;41.74;95687.38;5090861;28;20035;-67
2022/03/13 09:45:48;;;;;;;32.50;20.55;;;;;;;1.02;41.19;95689.72;5091979;28;20024;-68
2022/03/13 09:48:15;;;;;;;22.40;12.93;;;;;;;0.93;40.76;95684.91;5091837;28;20410;-67
2022/03/13 09:50:42;;;;;;;28.50;14.35;;;;;;;1.02;41.00;95679.50;5073983;28;20028;-67
2022/03/13 09:53:08;;;;;;;30.73;14.68;;;;;;;1.06;42.68;95675.97;5092091;28;20038;-67
2022/03/13 09:55:33;;;;;;;24.98;14.15;;;;;;;1.01;41.00;95680.38;5084092;28;20123;-67
2022/03/13 09:57:58;;;;;;;25.58;15.02;;;;;;;1.07;42.17;95677.63;5051467;28;20094;-67
2022/03/13 10:00:25;;;;;;;29.20;16.33;;;;;;;1.21;40.97;95670.34;5069306;28;20047;-67
2022/03/13 10:02:54;;;;;;;25.30;15.30;;;;;;;1.24;40.87;95669.41;5085652;28;20260;-67
2022/03/13 10:05:20;;;;;;;28.00;15.73;;;;;;;1.33;41.19;95672.47;5086381;28;20482;-67
2022/03/13 10:07:48;;;;;;;26.73;15.38;;;;;;;1.43;40.67;95667.91;5087714;28;20032;-67
2022/03/13 10:10:14;;;;;;;27.73;16.65;;;;;;;1.64;41.74;95662.94;5088542;28;20110;-67
2022/03/13 10:12:40;;;;;;;28.88;14.88;;;;;;;1.75;40.04;95655.72;5088850;28;20059;-67
2022/03/13 10:15:06;;;;;;;25.80;14.38;;;;;;;1.84;39.71;95654.56;5053422;28;20718;-69
2022/03/13 10:17:36;;;;;;;28.77;15.73;;;;;;;1.99;39.31;95647.16;5070093;28;20039;-68
2022/03/13 10:20:18;;;;;;;25.55;15.07;;;;;;;2.20;39.50;95650.69;5068489;28;20490;-68
2022/03/13 10:22:46;;;;;;;23.20;14.02;;;;;;;2.30;38.57;95645.22;5076135;28;20028;-68
2022/03/13 10:25:13;;;;;;;23.88;14.43;;;;;;;2.27;38.35;95651.28;5072060;28;20040;-67
2022/03/13 10:27:39;;;;;;;25.73;13.98;;;;;;;2.37;37.67;95644.09;5084751;28;20035;-67
2022/03/13 10:30:09;;;;;;;22.08;12.70;;;;;;;2.43;37.05;95636.19;5050558;28;20507;-68
2022/03/13 10:32:37;;;;;;;22.15;13.00;;;;;;;2.47;37.56;95640.28;5087744;28;20024;-68
2022/03/13 10:35:03;;;;;;;22.98;13.23;;;;;;;2.49;35.49;95638.50;5070369;28;20036;-68
2022/03/13 10:37:39;;;;;;;25.67;13.73;;;;;;;2.54;37.15;95641.72;5056500;28;20031;-68
2022/03/13 10:40:25;;;;;;;24.88;13.90;;;;;;;2.57;36.88;95636.47;5072775;28;20060;-67
2022/03/13 10:42:51;;;;;;;29.65;16.48;;;;;;;2.49;37.39;95635.94;5087256;28;20070;-71
2022/03/13 10:45:53;;;;;;;31.02;16.77;;;;;;;2.49;37.45;95633.38;5072261;28;20063;-69
2022/03/13 10:48:47;;;;;;;41.65;17.58;;;;;;;2.64;37.84;95632.75;5035338;28;20036;-67
2022/03/13 10:51:13;;;;;;;25.95;16.30;;;;;;;2.66;36.20;95630.16;5065985;28;20048;-67
2022/03/13 10:53:39;;;;;;;27.00;15.60;;;;;;;2.63;36.74;95625.97;5067983;28;20036;-67
2022/03/13 10:56:12;;;;;;;33.35;16.80;;;;;;;2.77;37.46;95616.91;5063163;28;20032;-68
2022/03/13 10:58:39;;;;;;;38.90;18.65;;;;;;;2.92;35.81;95618.84;5075294;28;20036;-68
2022/03/13 11:01:07;;;;;;;36.38;18.20;;;;;;;2.93;37.27;95623.09;5052418;28;20036;-68
2022/03/13 11:03:33;;;;;;;38.13;20.30;;;;;;;2.97;37.32;95619.50;5073534;28;20751;-68
2022/03/13 11:05:59;;;;;;;32.17;17.08;;;;;;;2.91;37.73;95619.75;5063195;28;20085;-68
2022/03/13 11:08:26;;;;;;;31.48;18.30;;;;;;;2.93;36.31;95614.59;5066097;28;20025;-68
2022/03/13 11:10:52;;;;;;;33.15;16.55;;;;;;;2.89;35.32;95611.28;5077183;28;20085;-67
2022/03/13 11:13:21;;;;;;;41.28;23.02;;;;;;;2.94;35.72;95598.28;5087563;28;20425;-68
2022/03/13 11:15:47;;;;;;;26.58;14.20;;;;;;;3.02;34.68;95597.06;5072552;28;20039;-68
2022/03/13 11:18:17;;;;;;;22.92;13.40;;;;;;;3.04;36.15;95597.84;5090150;28;20089;-68
2022/03/13 11:20:42;;;;;;;28.98;15.70;;;;;;;3.02;37.18;95589.34;5057763;28;20040;-67
2022/03/13 11:23:08;;;;;;;26.58;14.68;;;;;;;3.02;35.49;95597.06;5041836;28;20039;-67